KAVL/AVL METAR and TAF weather

Enter ICAO airport designator
Station Type Date Time Source
KAVL METAR 2018/07/17 00:07 UTC NOAA

KAVL 170007Z 16006KT 10SM SCT025 BKN042 OVC080 24/22 A3008 RMK AO2 LTG DSNT N T02390217


Station Type Date Time Source
KAVL Decoded METAR 2018/07/17 00:07 UTC NOAA

ASHEVILLE REGIONAL AIRPORT, NC, United States (KAVL) 35-26N 82-32W 670M
Jul 16, 2018 - 08:07 PM EDT / 2018.07.17 0007 UTC
Wind: from the SSE (160 degrees) at 7 MPH (6 KT):0
Visibility: 10 mile(s):0
Sky conditions: overcast
Weather: Lightning observed
Temperature: 75.0 F (23.9 C)
Dew Point: 71.1 F (21.7 C)
Relative Humidity: 87%
Pressure (altimeter): 30.08 in. Hg (1018 hPa)
ob: KAVL 170007Z 16006KT 10SM SCT025 BKN042 OVC080 24/22 A3008 RMK AO2 LTG DSNT N T02390217
cycle: 0

Station Type Date Time Source
KAVL TAF 2018/07/16 21:09 UTC NOAA

TAF
AMD KAVL 162107Z 1621/1718 18005KT P6SM VCSH SCT040
TEMPO 1622/1624 4SM -TSRA OVC025CB
FM170300 21004KT P6SM VCSH SCT025 BKN090
FM171100 24004KT P6SM BKN070 PROB30 1713/1718 4SM -TSRA OVC025CB


Example: see airport list